Time;durP1;ratioP1;P1;durP2;ratioP2;P2;SDS_P1;SDS_P2;PMS_P1;PMS_P2;Temp;Humidity;BMP_temperature;BMP_pressure;BME280_temperature;BME280_humidity;BME280_pressure;Samples;Min_cycle;Max_cycle;Signal;HPM_P1;HPM_P2
2022/03/17 00:02:15;;;;;;;;;2.00;2.00;;;;;;;;5094081;27;45449;-71
2022/03/17 00:04:41;;;;;;;;;2.25;2.25;;;;;;;;5093902;27;45419;-71
2022/03/17 00:07:07;;;;;;;;;2.75;2.75;;;;;;;;5094724;27;45472;-71
2022/03/17 00:09:32;;;;;;;;;3.00;2.50;;;;;;;;5093876;27;45361;-71
2022/03/17 00:11:58;;;;;;;;;3.00;3.00;;;;;;;;5093007;27;45433;-71
2022/03/17 00:14:23;;;;;;;;;2.00;2.00;;;;;;;;5093863;27;45449;-71
2022/03/17 00:16:49;;;;;;;;;2.00;2.00;;;;;;;;5091310;27;46475;-71
2022/03/17 00:19:15;;;;;;;;;3.00;2.00;;;;;;;;5093882;27;45558;-71
2022/03/17 00:21:40;;;;;;;;;3.00;1.00;;;;;;;;5099876;27;46880;-71
2022/03/17 00:24:08;;;;;;;;;1.75;1.75;;;;;;;;5096928;27;45223;-71
2022/03/17 00:26:34;;;;;;;;;2.75;2.75;;;;;;;;5095263;27;45444;-71
2022/03/17 00:29:00;;;;;;;;;2.00;2.00;;;;;;;;5096160;27;45410;-71
2022/03/17 00:31:25;;;;;;;;;3.00;3.00;;;;;;;;5079301;27;46104;-71
2022/03/17 00:33:50;;;;;;;;;5.25;2.75;;;;;;;;5099232;27;45347;-71
2022/03/17 00:36:16;;;;;;;;;2.00;1.75;;;;;;;;5097418;27;45310;-71
2022/03/17 00:38:41;;;;;;;;;3.25;3.00;;;;;;;;5097067;27;45496;-71
2022/03/17 00:41:06;;;;;;;;;4.00;2.75;;;;;;;;5099615;27;46492;-71
2022/03/17 00:43:34;;;;;;;;;3.25;2.75;;;;;;;;5101568;27;45355;-71
2022/03/17 00:45:59;;;;;;;;;2.00;2.00;;;;;;;;5098995;27;45407;-71
2022/03/17 00:48:24;;;;;;;;;2.25;2.25;;;;;;;;5099303;27;45461;-70
2022/03/17 00:50:49;;;;;;;;;2.50;2.50;;;;;;;;5096757;27;45452;-70
2022/03/17 00:53:15;;;;;;;;;3.50;2.50;;;;;;;;5095690;27;45370;-70
2022/03/17 00:55:40;;;;;;;;;3.00;3.00;;;;;;;;5095828;27;45540;-71
2022/03/17 00:58:06;;;;;;;;;2.75;2.75;;;;;;;;5097583;27;45337;-71
2022/03/17 01:00:31;;;;;;;;;4.00;3.00;;;;;;;;5098335;27;45406;-70
2022/03/17 01:02:57;;;;;;;;;1.50;1.50;;;;;;;;5095023;27;45449;-70
2022/03/17 01:05:23;;;;;;;;;3.75;3.00;;;;;;;;5096481;27;45519;-70
2022/03/17 01:07:53;;;;;;;;;2.75;2.00;;;;;;;;5097307;27;45451;-71
2022/03/17 01:10:19;;;;;;;;;2.00;1.00;;;;;;;;5096243;27;47243;-71
2022/03/17 01:12:46;;;;;;;;;2.25;2.00;;;;;;;;5098796;27;45364;-71
2022/03/17 01:15:11;;;;;;;;;2.75;2.75;;;;;;;;5096410;27;45150;-70
2022/03/17 01:17:36;;;;;;;;;2.00;2.00;;;;;;;;5096485;27;45603;-71
2022/03/17 01:20:03;;;;;;;;;2.50;2.50;;;;;;;;5095627;27;45760;-71
2022/03/17 01:22:29;;;;;;;;;3.00;2.25;;;;;;;;5096332;27;45560;-70
2022/03/17 01:24:54;;;;;;;;;2.00;2.00;;;;;;;;5098076;27;45445;-71
2022/03/17 01:27:20;;;;;;;;;2.00;2.00;;;;;;;;5096247;27;45385;-71
2022/03/17 01:29:52;;;;;;;;;2.50;2.50;;;;;;;;5079657;27;47173;-71
2022/03/17 01:32:18;;;;;;;;;2.75;2.75;;;;;;;;5090534;27;45378;-70
2022/03/17 01:34:43;;;;;;;;;2.00;2.00;;;;;;;;5094669;27;45493;-70
2022/03/17 01:37:09;;;;;;;;;3.50;2.25;;;;;;;;5096468;27;45372;-71
2022/03/17 01:39:34;;;;;;;;;2.00;2.00;;;;;;;;5098055;27;45453;-71
2022/03/17 01:42:02;;;;;;;;;2.50;2.25;;;;;;;;5095906;27;45523;-71
2022/03/17 01:44:27;;;;;;;;;2.25;2.25;;;;;;;;5095069;27;45244;-71
2022/03/17 01:49:37;;;;;;;;;3.25;1.00;;;;;;;;5093318;27;45740;-71
2022/03/17 01:52:03;;;;;;;;;3.00;3.00;;;;;;;;5096968;27;45298;-70
2022/03/17 01:54:28;;;;;;;;;2.75;2.75;;;;;;;;5096397;27;45667;-71
2022/03/17 01:56:54;;;;;;;;;3.00;3.00;;;;;;;;5094524;27;45499;-71
2022/03/17 01:59:19;;;;;;;;;3.00;1.00;;;;;;;;5095217;27;46248;-71
2022/03/17 02:01:45;;;;;;;;;4.00;2.75;;;;;;;;5095752;27;45288;-71
2022/03/17 02:04:10;;;;;;;;;3.50;2.00;;;;;;;;5095592;27;45229;-71
2022/03/17 02:06:37;;;;;;;;;4.50;3.00;;;;;;;;5079562;27;45647;-71
2022/03/17 02:09:02;;;;;;;;;3.00;3.00;;;;;;;;5095477;27;46397;-71
2022/03/17 02:14:12;;;;;;;;;4.75;2.00;;;;;;;;5098646;27;45563;-70
2022/03/17 02:16:38;;;;;;;;;3.00;3.00;;;;;;;;5096449;27;45346;-71
2022/03/17 02:19:03;;;;;;;;;3.75;3.00;;;;;;;;5096959;27;45578;-71
2022/03/17 02:21:29;;;;;;;;;2.00;1.25;;;;;;;;5097072;27;45342;-71
2022/03/17 02:26:39;;;;;;;;;3.50;2.00;;;;;;;;5094450;27;45497;-71
2022/03/17 02:29:04;;;;;;;;;3.00;2.00;;;;;;;;5093540;27;47217;-71
2022/03/17 02:31:30;;;;;;;;;2.50;1.75;;;;;;;;5095044;27;45539;-71
2022/03/17 02:33:55;;;;;;;;;3.00;2.00;;;;;;;;5079020;27;45431;-70
2022/03/17 02:36:20;;;;;;;;;2.25;2.25;;;;;;;;5075288;27;45412;-70
2022/03/17 02:38:45;;;;;;;;;2.00;2.00;;;;;;;;5093604;27;46360;-70
2022/03/17 02:41:21;;;;;;;;;2.00;2.00;;;;;;;;5093791;27;45477;-71
2022/03/17 02:43:49;;;;;;;;;2.00;2.00;;;;;;;;5093767;27;45462;-71
2022/03/17 02:46:14;;;;;;;;;3.00;2.50;;;;;;;;5094972;27;45571;-71
2022/03/17 02:48:39;;;;;;;;;4.25;2.25;;;;;;;;5097236;27;47065;-71
2022/03/17 02:51:04;;;;;;;;;2.00;2.00;;;;;;;;5095182;27;45249;-71
2022/03/17 02:53:30;;;;;;;;;2.50;2.50;;;;;;;;5094995;27;45508;-71
2022/03/17 02:55:55;;;;;;;;;3.00;3.00;;;;;;;;5076970;27;45322;-71
2022/03/17 02:58:20;;;;;;;;;1.75;1.75;;;;;;;;5095955;27;45544;-70
2022/03/17 03:00:45;;;;;;;;;1.00;1.00;;;;;;;;5097291;27;45230;-71
2022/03/17 03:03:10;;;;;;;;;3.00;2.00;;;;;;;;5093484;27;45247;-71
2022/03/17 03:05:36;;;;;;;;;1.25;1.25;;;;;;;;5093276;27;45401;-70
2022/03/17 03:08:02;;;;;;;;;1.50;1.50;;;;;;;;5094152;27;46452;-71
2022/03/17 03:10:27;;;;;;;;;1.50;1.50;;;;;;;;5094991;27;45399;-71
2022/03/17 03:12:52;;;;;;;;;3.00;2.75;;;;;;;;5096934;27;45485;-70
2022/03/17 03:15:18;;;;;;;;;2.00;2.00;;;;;;;;5094763;27;45401;-70
2022/03/17 03:17:43;;;;;;;;;1.00;1.00;;;;;;;;5092815;27;46830;-70
2022/03/17 03:20:08;;;;;;;;;3.00;2.00;;;;;;;;5076179;27;45589;-71
2022/03/17 03:22:39;;;;;;;;;1.75;1.75;;;;;;;;5094322;27;45493;-71
2022/03/17 03:25:05;;;;;;;;;1.75;1.75;;;;;;;;5093232;27;45383;-71
2022/03/17 03:27:30;;;;;;;;;2.00;2.00;;;;;;;;5095786;27;46391;-71
2022/03/17 03:29:56;;;;;;;;;1.50;1.50;;;;;;;;5094358;27;46648;-71
2022/03/17 03:32:22;;;;;;;;;2.00;2.00;;;;;;;;5090957;27;45475;-71
2022/03/17 03:34:47;;;;;;;;;1.00;1.00;;;;;;;;5092919;27;45429;-70
2022/03/17 03:37:25;;;;;;;;;1.75;1.75;;;;;;;;5094097;27;46554;-71
2022/03/17 03:39:54;;;;;;;;;1.50;1.50;;;;;;;;5092200;27;45492;-71
2022/03/17 03:42:20;;;;;;;;;2.50;1.00;;;;;;;;5095330;27;45470;-71
2022/03/17 03:44:46;;;;;;;;;1.00;1.00;;;;;;;;5093463;27;45430;-71
2022/03/17 03:47:11;;;;;;;;;1.00;1.00;;;;;;;;5094440;27;46673;-71
2022/03/17 03:49:39;;;;;;;;;1.50;1.50;;;;;;;;5093418;27;45581;-71
2022/03/17 03:52:04;;;;;;;;;1.25;1.00;;;;;;;;5095196;27;45409;-71
2022/03/17 03:54:29;;;;;;;;;2.00;2.00;;;;;;;;5094395;27;45324;-71
2022/03/17 03:56:56;;;;;;;;;1.00;1.00;;;;;;;;5093814;27;46087;-71
2022/03/17 03:59:23;;;;;;;;;1.00;1.00;;;;;;;;5094015;27;45543;-71
2022/03/17 04:01:49;;;;;;;;;2.50;1.50;;;;;;;;5094058;27;45443;-71
2022/03/17 04:04:20;;;;;;;;;1.00;1.00;;;;;;;;5093617;27;45286;-71
2022/03/17 04:06:46;;;;;;;;;4.50;1.50;;;;;;;;5095977;27;47525;-70
2022/03/17 04:09:16;;;;;;;;;0.75;0.25;;;;;;;;5093645;27;46474;-71
2022/03/17 04:11:41;;;;;;;;;1.00;1.00;;;;;;;;5091351;27;45500;-71
2022/03/17 04:14:07;;;;;;;;;2.50;2.50;;;;;;;;5092234;27;46621;-71
2022/03/17 04:16:32;;;;;;;;;2.00;2.00;;;;;;;;5093731;27;46543;-70
2022/03/17 04:18:58;;;;;;;;;1.00;1.00;;;;;;;;5095162;27;45236;-70
2022/03/17 04:21:23;;;;;;;;;2.00;1.50;;;;;;;;5092034;27;45378;-70
2022/03/17 04:23:48;;;;;;;;;1.00;1.00;;;;;;;;5091132;27;45279;-71
2022/03/17 04:26:13;;;;;;;;;1.00;1.00;;;;;;;;5093650;27;47418;-70
2022/03/17 04:28:39;;;;;;;;;3.25;2.00;;;;;;;;5076588;27;45312;-70
2022/03/17 04:31:04;;;;;;;;;3.25;1.25;;;;;;;;5094965;27;45458;-71
2022/03/17 04:33:29;;;;;;;;;1.25;1.25;;;;;;;;5094624;27;45488;-71
2022/03/17 04:35:55;;;;;;;;;1.00;1.00;;;;;;;;5093170;27;46697;-71
2022/03/17 04:38:20;;;;;;;;;2.00;2.00;;;;;;;;5093402;27;45453;-70
2022/03/17 04:40:49;;;;;;;;;1.00;1.00;;;;;;;;5093772;27;45415;-71
2022/03/17 04:43:17;;;;;;;;;2.00;2.00;;;;;;;;5093634;27;45254;-71
2022/03/17 04:45:42;;;;;;;;;1.00;1.00;;;;;;;;5095559;27;45642;-71
2022/03/17 04:48:07;;;;;;;;;1.00;1.00;;;;;;;;5092486;27;45610;-71
2022/03/17 04:50:33;;;;;;;;;1.00;1.00;;;;;;;;5092200;27;45449;-71
2022/03/17 04:55:41;;;;;;;;;1.00;1.00;;;;;;;;5093008;27;45767;-71
2022/03/17 04:58:06;;;;;;;;;2.50;1.75;;;;;;;;5094303;27;45765;-71
2022/03/17 05:00:32;;;;;;;;;2.25;2.00;;;;;;;;5093361;27;45455;-71
2022/03/17 05:02:57;;;;;;;;;1.00;1.00;;;;;;;;5095831;27;45480;-71
2022/03/17 05:05:22;;;;;;;;;2.75;1.00;;;;;;;;5094194;27;45606;-71
2022/03/17 05:07:47;;;;;;;;;1.00;1.00;;;;;;;;5096549;27;45288;-71
2022/03/17 05:10:13;;;;;;;;;1.00;1.00;;;;;;;;5096929;27;46188;-71
2022/03/17 05:12:39;;;;;;;;;1.00;1.00;;;;;;;;5098761;27;45574;-71
2022/03/17 05:15:04;;;;;;;;;1.00;1.00;;;;;;;;5096487;27;47109;-71
2022/03/17 05:17:30;;;;;;;;;1.00;1.00;;;;;;;;5095095;27;45332;-71
2022/03/17 05:19:55;;;;;;;;;1.25;1.00;;;;;;;;5095542;27;45381;-71
2022/03/17 05:22:20;;;;;;;;;0.00;0.00;;;;;;;;5096681;27;45367;-71
2022/03/17 05:24:46;;;;;;;;;0.50;0.50;;;;;;;;5080257;27;46422;-71
2022/03/17 05:27:11;;;;;;;;;1.00;1.00;;;;;;;;5094840;27;45522;-71
2022/03/17 05:29:36;;;;;;;;;1.00;1.00;;;;;;;;5095415;27;45524;-71
2022/03/17 05:32:01;;;;;;;;;1.00;1.00;;;;;;;;5095708;27;45575;-71
2022/03/17 05:34:27;;;;;;;;;1.00;1.00;;;;;;;;5094645;27;46431;-71
2022/03/17 05:36:52;;;;;;;;;1.00;1.00;;;;;;;;5098563;27;45542;-70
2022/03/17 05:39:17;;;;;;;;;1.00;1.00;;;;;;;;5095768;27;45428;-71
2022/03/17 05:41:43;;;;;;;;;0.75;0.75;;;;;;;;5093339;27;45563;-70
2022/03/17 05:44:08;;;;;;;;;1.00;1.00;;;;;;;;5095894;27;46504;-70
2022/03/17 05:46:33;;;;;;;;;2.00;1.00;;;;;;;;5097593;27;45358;-70
2022/03/17 05:48:59;;;;;;;;;1.00;1.00;;;;;;;;5097375;27;45595;-70
2022/03/17 05:51:24;;;;;;;;;0.00;0.00;;;;;;;;5096907;27;45444;-70
2022/03/17 05:53:50;;;;;;;;;1.25;1.00;;;;;;;;5095764;27;45441;-70
2022/03/17 05:56:15;;;;;;;;;0.00;0.00;;;;;;;;5095922;27;45282;-70
2022/03/17 05:58:40;;;;;;;;;2.00;2.00;;;;;;;;5094699;27;45290;-70
2022/03/17 06:01:05;;;;;;;;;1.75;1.75;;;;;;;;5096928;27;45296;-70
2022/03/17 06:03:30;;;;;;;;;2.00;2.00;;;;;;;;5097063;27;47486;-70
2022/03/17 06:05:56;;;;;;;;;1.00;1.00;;;;;;;;5094418;27;45437;-70
2022/03/17 06:08:21;;;;;;;;;2.00;0.25;;;;;;;;5093797;27;45417;-70
2022/03/17 06:10:46;;;;;;;;;2.00;0.00;;;;;;;;5094069;27;45360;-70
2022/03/17 06:13:11;;;;;;;;;1.00;1.00;;;;;;;;5093631;27;46504;-71
2022/03/17 06:15:36;;;;;;;;;1.50;1.50;;;;;;;;5097326;27;45629;-70
2022/03/17 06:18:03;;;;;;;;;1.00;1.00;;;;;;;;5093470;27;45475;-70
2022/03/17 06:20:29;;;;;;;;;2.25;1.00;;;;;;;;5094213;27;45561;-70
2022/03/17 06:22:56;;;;;;;;;2.00;1.00;;;;;;;;5095437;27;46377;-71
2022/03/17 06:25:23;;;;;;;;;0.25;0.00;;;;;;;;5095291;27;45620;-70
2022/03/17 06:27:49;;;;;;;;;2.00;2.00;;;;;;;;5097375;27;45476;-70
2022/03/17 06:30:15;;;;;;;;;0.00;0.00;;;;;;;;5098339;27;45818;-70
2022/03/17 06:32:41;;;;;;;;;2.25;1.00;;;;;;;;5079068;27;45697;-70
2022/03/17 06:35:08;;;;;;;;;1.00;1.00;;;;;;;;5096102;27;45238;-70
2022/03/17 06:37:33;;;;;;;;;0.75;0.75;;;;;;;;5093775;27;45468;-70
2022/03/17 06:39:58;;;;;;;;;0.00;0.00;;;;;;;;5096906;27;45263;-70
2022/03/17 06:42:23;;;;;;;;;0.00;0.00;;;;;;;;5093596;27;49348;-70
2022/03/17 06:44:49;;;;;;;;;1.25;1.25;;;;;;;;5095708;27;45589;-70
2022/03/17 06:47:14;;;;;;;;;0.25;0.25;;;;;;;;5093645;27;45400;-70
2022/03/17 06:49:39;;;;;;;;;0.75;0.75;;;;;;;;5093904;27;45518;-70
2022/03/17 06:52:05;;;;;;;;;1.00;1.00;;;;;;;;5096306;27;45331;-73
2022/03/17 06:54:30;;;;;;;;;1.00;1.00;;;;;;;;5096994;27;45517;-70
2022/03/17 06:56:55;;;;;;;;;1.25;1.25;;;;;;;;5091168;27;45609;-70
2022/03/17 06:59:21;;;;;;;;;0.75;0.75;;;;;;;;5090747;27;45480;-71
2022/03/17 07:01:46;;;;;;;;;0.50;0.50;;;;;;;;5094839;27;45375;-70
2022/03/17 07:04:12;;;;;;;;;0.25;0.25;;;;;;;;5092825;27;45537;-70
2022/03/17 07:06:37;;;;;;;;;1.00;1.00;;;;;;;;5095369;27;45591;-70
2022/03/17 07:09:02;;;;;;;;;1.00;1.00;;;;;;;;5094400;27;45469;-69
2022/03/17 07:11:27;;;;;;;;;0.50;0.50;;;;;;;;5093787;27;46872;-68
2022/03/17 07:13:52;;;;;;;;;1.50;1.50;;;;;;;;5090685;27;45406;-69
2022/03/17 07:16:18;;;;;;;;;2.00;2.00;;;;;;;;5093903;27;45321;-69
2022/03/17 07:18:44;;;;;;;;;0.50;0.50;;;;;;;;5095514;27;45584;-70
2022/03/17 07:21:09;;;;;;;;;1.00;1.00;;;;;;;;5094109;27;46392;-69
2022/03/17 07:23:34;;;;;;;;;2.00;1.00;;;;;;;;5094234;27;45498;-69
2022/03/17 07:25:59;;;;;;;;;0.75;0.75;;;;;;;;5092996;27;45273;-68
2022/03/17 07:28:26;;;;;;;;;2.25;1.25;;;;;;;;5093554;27;45453;-68
2022/03/17 07:30:51;;;;;;;;;1.00;1.00;;;;;;;;5096130;27;46085;-68
2022/03/17 07:33:16;;;;;;;;;0.50;0.50;;;;;;;;5094229;27;45461;-68
2022/03/17 07:35:41;;;;;;;;;1.00;1.00;;;;;;;;5092794;27;45433;-68
2022/03/17 07:38:07;;;;;;;;;0.00;0.00;;;;;;;;5093062;27;45363;-69
2022/03/17 07:40:33;;;;;;;;;2.00;2.00;;;;;;;;5093862;27;45381;-68
2022/03/17 07:42:59;;;;;;;;;1.00;1.00;;;;;;;;5095307;27;45406;-68
2022/03/17 07:45:24;;;;;;;;;1.00;1.00;;;;;;;;5093557;27;45527;-68
2022/03/17 07:47:50;;;;;;;;;0.00;0.00;;;;;;;;5093686;27;45455;-68
2022/03/17 07:50:16;;;;;;;;;2.00;2.00;;;;;;;;5093397;27;46288;-68
2022/03/17 07:52:41;;;;;;;;;1.00;1.00;;;;;;;;5093309;27;45470;-68
2022/03/17 07:55:07;;;;;;;;;0.00;0.00;;;;;;;;5095269;27;45326;-67
2022/03/17 07:57:32;;;;;;;;;1.75;1.00;;;;;;;;5093252;27;45468;-67
2022/03/17 07:59:58;;;;;;;;;0.00;0.00;;;;;;;;5092886;27;46172;-67
2022/03/17 08:02:23;;;;;;;;;0.25;0.25;;;;;;;;5093639;27;45289;-68
2022/03/17 08:04:50;;;;;;;;;1.00;1.00;;;;;;;;5092807;27;45387;-68
2022/03/17 08:07:15;;;;;;;;;1.25;1.00;;;;;;;;5093996;27;45413;-67
2022/03/17 08:09:41;;;;;;;;;0.00;0.00;;;;;;;;5095927;27;45273;-68
2022/03/17 08:12:06;;;;;;;;;1.00;1.00;;;;;;;;5091804;27;50794;-68
2022/03/17 08:14:31;;;;;;;;;2.00;1.25;;;;;;;;5072338;27;45311;-68
2022/03/17 08:16:56;;;;;;;;;1.00;1.00;;;;;;;;5092419;27;45572;-68
2022/03/17 08:19:22;;;;;;;;;4.00;1.00;;;;;;;;5093621;27;46696;-68
2022/03/17 08:21:47;;;;;;;;;1.00;1.00;;;;;;;;5095925;27;45649;-68
2022/03/17 08:24:13;;;;;;;;;0.00;0.00;;;;;;;;5092633;27;45536;-68
2022/03/17 08:26:39;;;;;;;;;0.50;0.50;;;;;;;;5092153;27;45568;-67
2022/03/17 08:29:05;;;;;;;;;1.00;1.00;;;;;;;;5091913;27;47053;-67
2022/03/17 08:31:30;;;;;;;;;1.75;1.00;;;;;;;;5092059;27;45396;-68
2022/03/17 08:33:59;;;;;;;;;1.00;1.00;;;;;;;;5095864;27;45434;-68
2022/03/17 08:36:25;;;;;;;;;2.00;0.00;;;;;;;;5091668;27;45639;-68
2022/03/17 08:38:54;;;;;;;;;1.00;1.00;;;;;;;;5092849;27;47236;-68
2022/03/17 08:41:19;;;;;;;;;1.75;0.00;;;;;;;;5094801;27;45410;-68
2022/03/17 08:43:45;;;;;;;;;1.00;1.00;;;;;;;;5078869;27;45609;-68
2022/03/17 08:51:38;;;;;;;;;0.75;0.75;;;;;;;;5097216;27;45352;-68
2022/03/17 08:54:03;;;;;;;;;3.00;2.00;;;;;;;;5095169;27;45711;-68
2022/03/17 08:56:28;;;;;;;;;2.00;1.00;;;;;;;;5095303;27;45426;-69
2022/03/17 08:58:54;;;;;;;;;0.00;0.00;;;;;;;;5096731;27;46367;-68
2022/03/17 09:01:19;;;;;;;;;0.75;0.75;;;;;;;;5077069;27;45278;-69
2022/03/17 09:03:44;;;;;;;;;1.00;1.00;;;;;;;;5097301;27;45614;-68
2022/03/17 09:06:11;;;;;;;;;0.75;0.75;;;;;;;;5095118;27;45473;-69
2022/03/17 09:08:36;;;;;;;;;1.25;1.25;;;;;;;;5095732;27;46582;-68
2022/03/17 09:11:01;;;;;;;;;1.50;1.50;;;;;;;;5094167;27;45391;-69
2022/03/17 09:13:26;;;;;;;;;0.75;0.00;;;;;;;;5096704;27;45801;-69
2022/03/17 09:15:52;;;;;;;;;1.75;1.75;;;;;;;;5098929;27;45298;-69
2022/03/17 09:18:18;;;;;;;;;0.00;0.00;;;;;;;;5095003;27;46344;-68
2022/03/17 09:20:43;;;;;;;;;2.75;0.75;;;;;;;;5093705;27;45390;-69
2022/03/17 09:23:09;;;;;;;;;2.00;1.00;;;;;;;;5094684;27;45359;-69
2022/03/17 09:25:34;;;;;;;;;1.00;1.00;;;;;;;;5096653;27;45345;-69
2022/03/17 09:28:00;;;;;;;;;0.25;0.25;;;;;;;;5097835;27;46232;-67
2022/03/17 09:30:25;;;;;;;;;1.00;1.00;;;;;;;;5095595;27;45494;-69
2022/03/17 09:32:52;;;;;;;;;1.00;1.00;;;;;;;;5093429;27;45439;-69
2022/03/17 09:35:18;;;;;;;;;0.25;0.25;;;;;;;;5094746;27;45553;-69
2022/03/17 09:37:43;;;;;;;;;0.00;0.00;;;;;;;;5094448;27;46376;-69
2022/03/17 09:40:09;;;;;;;;;2.00;0.00;;;;;;;;5096563;27;45407;-67
2022/03/17 09:42:35;;;;;;;;;0.00;0.00;;;;;;;;5095567;27;45413;-68
2022/03/17 09:45:00;;;;;;;;;1.00;1.00;;;;;;;;5094924;27;45390;-69
2022/03/17 09:47:28;;;;;;;;;1.00;1.00;;;;;;;;5093133;27;46366;-69
2022/03/17 09:49:54;;;;;;;;;0.25;0.25;;;;;;;;5095649;27;45508;-69
2022/03/17 09:52:20;;;;;;;;;2.00;1.00;;;;;;;;5098009;27;45533;-69
2022/03/17 09:54:47;;;;;;;;;1.00;1.00;;;;;;;;5097822;27;45436;-69
2022/03/17 09:57:16;;;;;;;;;0.00;0.00;;;;;;;;5096087;27;45555;-67
2022/03/17 09:59:41;;;;;;;;;1.75;0.50;;;;;;;;5096764;27;45451;-66
2022/03/17 10:02:07;;;;;;;;;0.75;0.75;;;;;;;;5094358;27;45418;-67
2022/03/17 10:04:35;;;;;;;;;1.00;1.00;;;;;;;;5095660;27;45519;-68
2022/03/17 10:07:00;;;;;;;;;0.00;0.00;;;;;;;;5096994;27;45346;-68
2022/03/17 10:09:27;;;;;;;;;2.00;0.50;;;;;;;;5096456;27;45460;-68
2022/03/17 10:12:06;;;;;;;;;1.00;1.00;;;;;;;;5095934;27;45423;-69
2022/03/17 10:14:35;;;;;;;;;2.00;0.00;;;;;;;;5095751;27;45365;-67
2022/03/17 10:17:03;;;;;;;;;0.00;0.00;;;;;;;;5095067;27;46329;-68
2022/03/17 10:19:31;;;;;;;;;0.00;0.00;;;;;;;;5095753;27;45441;-68
2022/03/17 10:22:05;;;;;;;;;0.00;0.00;;;;;;;;5097310;27;45507;-68
2022/03/17 10:24:33;;;;;;;;;1.00;1.00;;;;;;;;5096160;27;45414;-68
2022/03/17 10:26:59;;;;;;;;;1.00;1.00;;;;;;;;5095305;27;46143;-68
2022/03/17 10:29:27;;;;;;;;;1.00;1.00;;;;;;;;5093464;27;45333;-68
2022/03/17 10:31:52;;;;;;;;;1.00;0.50;;;;;;;;5094097;27;45454;-68
2022/03/17 10:34:18;;;;;;;;;1.00;1.00;;;;;;;;5094470;27;45433;-68
2022/03/17 10:36:47;;;;;;;;;0.00;0.00;;;;;;;;5095694;27;45343;-68
2022/03/17 10:39:13;;;;;;;;;1.50;1.00;;;;;;;;5094632;27;45495;-68
2022/03/17 10:41:40;;;;;;;;;0.50;0.25;;;;;;;;5077630;27;45564;-68
2022/03/17 10:44:09;;;;;;;;;3.00;1.75;;;;;;;;5095380;27;45517;-68
2022/03/17 10:46:34;;;;;;;;;1.00;1.00;;;;;;;;5094007;27;46310;-68
2022/03/17 10:49:00;;;;;;;;;2.00;0.50;;;;;;;;5096829;27;45358;-68
2022/03/17 10:51:37;;;;;;;;;2.00;2.00;;;;;;;;5092740;27;45370;-68
2022/03/17 10:54:08;;;;;;;;;2.00;1.00;;;;;;;;5095293;27;45502;-67
2022/03/17 10:56:34;;;;;;;;;0.75;0.50;;;;;;;;5093655;27;45417;-68
2022/03/17 10:59:00;;;;;;;;;1.25;0.75;;;;;;;;5094587;27;45426;-68
2022/03/17 11:01:48;;;;;;;;;0.75;0.75;;;;;;;;5078808;27;45454;-68
2022/03/17 11:04:14;;;;;;;;;2.75;2.00;;;;;;;;5093234;27;45541;-67
2022/03/17 11:06:40;;;;;;;;;1.75;1.75;;;;;;;;5094833;27;45507;-68
2022/03/17 11:09:08;;;;;;;;;1.75;1.00;;;;;;;;5092239;27;45544;-67
2022/03/17 11:11:37;;;;;;;;;1.00;1.00;;;;;;;;5094633;27;45558;-68
2022/03/17 11:14:03;;;;;;;;;0.50;0.50;;;;;;;;5094701;27;45572;-68
2022/03/17 11:16:54;;;;;;;;;1.33;1.00;;;;;;;;5095242;27;46293;-68
2022/03/17 11:19:21;;;;;;;;;0.75;0.75;;;;;;;;5071723;27;45426;-68
2022/03/17 11:21:49;;;;;;;;;2.00;0.00;;;;;;;;5095840;27;45534;-68
2022/03/17 11:24:18;;;;;;;;;1.00;1.00;;;;;;;;5092869;27;45476;-68
2022/03/17 11:26:44;;;;;;;;;0.00;0.00;;;;;;;;5092838;27;45609;-67
2022/03/17 11:29:12;;;;;;;;;0.00;0.00;;;;;;;;5092572;27;45428;-68
2022/03/17 11:31:52;;;;;;;;;0.75;0.00;;;;;;;;5093333;27;45394;-68
2022/03/17 11:34:53;;;;;;;;;1.00;1.00;;;;;;;;5094652;27;45529;-68
2022/03/17 11:37:28;;;;;;;;;0.00;0.00;;;;;;;;5011735;28;46727;-67
2022/03/17 11:39:57;;;;;;;;;1.00;1.00;;;;;;;;5013472;28;46049;-68
2022/03/17 11:42:28;;;;;;;;;1.00;1.00;;;;;;;;5012480;28;45328;-68
2022/03/17 11:45:07;;;;;;;;;1.00;1.00;;;;;;;;5012630;28;45585;-68
2022/03/17 11:47:36;;;;;;;;;1.00;1.00;;;;;;;;4995298;28;46280;-68
2022/03/17 11:50:20;;;;;;;;;1.00;1.00;;;;;;;;5011840;28;45429;-68
2022/03/17 11:52:49;;;;;;;;;1.00;1.00;;;;;;;;5012669;28;45541;-68
2022/03/17 11:55:33;;;;;;;;;0.75;0.75;;;;;;;;5012617;28;45350;-67
2022/03/17 11:58:17;;;;;;;;;0.25;0.25;;;;;;;;5013131;28;45707;-68
2022/03/17 12:00:46;;;;;;;;;1.50;0.00;;;;;;;;5013147;28;45353;-68
2022/03/17 12:03:12;;;;;;;;;1.00;1.00;;;;;;;;5011986;28;45345;-68
2022/03/17 12:05:42;;;;;;;;;1.00;1.00;;;;;;;;5012304;28;45629;-68
2022/03/17 12:08:07;;;;;;;;;1.00;1.00;;;;;;;;5012067;28;47144;-68
2022/03/17 12:10:51;;;;;;;;;1.75;0.00;;;;;;;;5025576;27;45400;-68
2022/03/17 12:13:24;;;;;;;;;2.75;2.00;;;;;;;;5093715;27;45437;-68
2022/03/17 12:15:55;;;;;;;;;2.50;1.00;;;;;;;;5076959;27;45394;-68
2022/03/17 12:18:21;;;;;;;;;0.25;0.00;;;;;;;;5092182;27;46598;-68
2022/03/17 12:20:47;;;;;;;;;1.00;1.00;;;;;;;;5093193;27;45499;-68
2022/03/17 12:23:30;;;;;;;;;0.50;0.50;;;;;;;;5093331;27;45581;-68
2022/03/17 12:26:05;;;;;;;;;0.00;0.00;;;;;;;;5093699;27;45230;-68
2022/03/17 12:28:30;;;;;;;;;1.00;1.00;;;;;;;;5082353;27;46118;-68
2022/03/17 12:30:56;;;;;;;;;0.00;0.00;;;;;;;;5096099;27;45523;-68
2022/03/17 12:33:22;;;;;;;;;0.25;0.25;;;;;;;;5092880;27;45520;-67
2022/03/17 12:36:01;;;;;;;;;0.00;0.00;;;;;;;;5093694;27;45449;-68
2022/03/17 12:38:27;;;;;;;;;0.75;0.75;;;;;;;;5096392;27;46456;-68
2022/03/17 12:40:53;;;;;;;;;1.00;0.00;;;;;;;;5096595;27;45512;-67
2022/03/17 12:43:19;;;;;;;;;0.25;0.25;;;;;;;;5096394;27;45488;-68
2022/03/17 12:45:45;;;;;;;;;1.00;1.00;;;;;;;;5095607;27;45403;-68
2022/03/17 12:48:11;;;;;;;;;2.00;1.00;;;;;;;;5096356;27;46437;-68
2022/03/17 12:50:36;;;;;;;;;1.25;1.00;;;;;;;;5059708;27;45409;-68
2022/03/17 12:53:01;;;;;;;;;1.00;0.00;;;;;;;;5036125;28;45438;-68
2022/03/17 12:55:27;;;;;;;;;1.75;0.75;;;;;;;;5047270;28;45271;-68
2022/03/17 12:57:52;;;;;;;;;1.00;1.00;;;;;;;;5044235;28;46573;-68
2022/03/17 13:00:20;;;;;;;;;0.25;0.25;;;;;;;;5042859;28;45301;-68
2022/03/17 13:02:46;;;;;;;;;1.75;0.00;;;;;;;;5045513;28;45311;-68
2022/03/17 13:07:58;;;;;;;;;0.00;0.00;;;;;;;;5045923;28;48527;-68
2022/03/17 13:10:27;;;;;;;;;0.00;0.00;;;;;;;;5047065;28;45354;-68
2022/03/17 13:15:36;;;;;;;;;0.75;0.75;;;;;;;;5048698;28;45323;-68
2022/03/17 13:18:03;;;;;;;;;0.25;0.00;;;;;;;;5043002;28;47079;-68
2022/03/17 13:20:28;;;;;;;;;0.00;0.00;;;;;;;;5042395;28;45909;-68
2022/03/17 13:23:04;;;;;;;;;1.00;1.00;;;;;;;;5050613;28;45631;-68
2022/03/17 13:25:30;;;;;;;;;2.25;0.00;;;;;;;;5030244;28;45497;-68
2022/03/17 13:27:57;;;;;;;;;0.00;0.00;;;;;;;;5056048;28;47201;-68
2022/03/17 13:30:22;;;;;;;;;0.50;0.50;;;;;;;;5053477;28;45467;-68
2022/03/17 13:32:59;;;;;;;;;1.50;1.50;;;;;;;;5053878;28;45617;-68
2022/03/17 13:35:25;;;;;;;;;0.00;0.00;;;;;;;;5055473;28;45508;-68
2022/03/17 13:37:50;;;;;;;;;1.00;1.00;;;;;;;;5052886;28;48079;-68
2022/03/17 13:40:18;;;;;;;;;0.00;0.00;;;;;;;;5055639;28;45508;-68
2022/03/17 13:43:02;;;;;;;;;1.00;1.00;;;;;;;;5057211;28;45440;-68
2022/03/17 13:45:34;;;;;;;;;2.00;1.00;;;;;;;;5054260;28;45305;-68
2022/03/17 13:48:00;;;;;;;;;0.75;0.00;;;;;;;;5054923;28;46277;-68
2022/03/17 13:50:25;;;;;;;;;1.00;1.00;;;;;;;;5066672;27;45455;-68
2022/03/17 13:52:55;;;;;;;;;0.00;0.00;;;;;;;;5074066;28;45417;-68
2022/03/17 13:55:21;;;;;;;;;0.00;0.00;;;;;;;;5075151;28;45396;-68
2022/03/17 13:57:46;;;;;;;;;1.00;0.75;;;;;;;;5076454;28;45349;-68
2022/03/17 14:00:22;;;;;;;;;0.25;0.00;;;;;;;;5074883;28;45449;-68
2022/03/17 14:03:06;;;;;;;;;1.00;1.00;;;;;;;;5074995;28;45545;-68
2022/03/17 14:05:31;;;;;;;;;0.00;0.00;;;;;;;;5071389;27;45611;-69
2022/03/17 14:07:56;;;;;;;;;0.75;0.75;;;;;;;;5073907;28;46568;-67
2022/03/17 14:10:22;;;;;;;;;2.00;1.00;;;;;;;;5075067;28;45314;-68
2022/03/17 14:12:47;;;;;;;;;0.00;0.00;;;;;;;;5076906;27;45450;-68
2022/03/17 14:15:12;;;;;;;;;2.00;0.25;;;;;;;;5075074;28;45407;-68
2022/03/17 14:17:37;;;;;;;;;0.00;0.00;;;;;;;;5074056;28;46699;-68
2022/03/17 14:20:03;;;;;;;;;0.75;0.75;;;;;;;;5073288;28;45475;-68
2022/03/17 14:25:12;;;;;;;;;0.50;0.00;;;;;;;;5073351;27;45256;-68
2022/03/17 14:27:37;;;;;;;;;0.75;0.75;;;;;;;;5075905;28;47269;-68
2022/03/17 14:30:03;;;;;;;;;0.00;0.00;;;;;;;;5072210;28;45312;-68
2022/03/17 14:32:29;;;;;;;;;2.00;0.00;;;;;;;;5074588;28;45352;-68
2022/03/17 14:34:54;;;;;;;;;0.00;0.00;;;;;;;;5075654;28;45577;-67
2022/03/17 14:37:19;;;;;;;;;0.00;0.00;;;;;;;;5074840;28;47169;-68
2022/03/17 14:39:45;;;;;;;;;0.00;0.00;;;;;;;;5076354;28;45428;-68
2022/03/17 14:42:13;;;;;;;;;0.00;0.00;;;;;;;;5074358;28;45439;-68
2022/03/17 14:44:39;;;;;;;;;2.75;1.00;;;;;;;;5057259;28;45672;-67
2022/03/17 14:47:04;;;;;;;;;0.00;0.00;;;;;;;;5074429;28;46089;-68
2022/03/17 14:49:29;;;;;;;;;0.00;0.00;;;;;;;;5075483;28;46785;-68
2022/03/17 14:51:54;;;;;;;;;1.00;0.00;;;;;;;;5077111;28;45434;-68
2022/03/17 14:54:20;;;;;;;;;0.00;0.00;;;;;;;;5057478;28;45405;-68
2022/03/17 14:56:46;;;;;;;;;1.00;1.00;;;;;;;;5073892;28;45494;-68
2022/03/17 14:59:12;;;;;;;;;0.00;0.00;;;;;;;;5075077;28;46967;-68
2022/03/17 15:01:37;;;;;;;;;0.00;0.00;;;;;;;;5074574;28;45593;-68
2022/03/17 15:04:02;;;;;;;;;0.75;0.00;;;;;;;;5076111;28;45340;-68
2022/03/17 15:06:27;;;;;;;;;0.00;0.00;;;;;;;;5073628;28;46566;-68